createdAt,value
2018-10-02T00:00:11.400Z,1.16
2018-10-02T00:01:12.085Z,1.92
2018-10-02T00:02:14.359Z,1.58
2018-10-02T00:03:13.402Z,0.62
2018-10-02T00:04:12.453Z,1.23
2018-10-02T00:05:12.578Z,1.08
2018-10-02T00:06:12.929Z,0.41
2018-10-02T00:07:12.764Z,0.39
2018-10-02T00:08:14.393Z,1.47
2018-10-02T00:09:12.881Z,1.66
2018-10-02T00:10:13.722Z,1.12
2018-10-02T00:11:14.023Z,0.29
2018-10-02T00:12:14.251Z,1.07
2018-10-02T00:13:14.739Z,0.14
2018-10-02T00:14:15.145Z,0.46
2018-10-02T00:15:15.196Z,0.55
2018-10-02T00:16:19.331Z,2.41
2018-10-02T00:17:19.047Z,0.74
2018-10-02T00:18:19.766Z,0.18
2018-10-02T00:19:20.120Z,1.34
2018-10-02T00:20:20.292Z,1.19
2018-10-02T00:21:20.562Z,3.17
2018-10-02T00:22:20.971Z,1.25
2018-10-02T00:23:20.717Z,1.17
2018-10-02T00:24:21.588Z,1.25
2018-10-02T00:25:21.996Z,0.98
2018-10-02T00:26:21.731Z,0.42
2018-10-02T00:27:22.530Z,0.73
2018-10-02T00:28:22.938Z,0.44
2018-10-02T00:29:22.192Z,1.44
2018-10-02T00:30:23.149Z,0.42
2018-10-02T00:31:23.659Z,0.49
2018-10-02T00:32:23.335Z,0.17
2018-10-02T00:33:24.306Z,1.10
2018-10-02T00:34:24.150Z,1.30
2018-10-02T00:35:24.566Z,0.66
2018-10-02T00:36:25.088Z,0.45
2018-10-02T00:37:25.064Z,0.90
2018-10-02T00:38:24.766Z,0.31
2018-10-02T00:39:25.636Z,0.04
2018-10-02T00:40:25.916Z,0.32
2018-10-02T00:41:25.487Z,0.13
2018-10-02T00:42:26.402Z,0.38
2018-10-02T00:43:26.769Z,0.59
2018-10-02T00:44:26.218Z,0.51
2018-10-02T00:45:27.600Z,0.14
2018-10-02T00:46:28.004Z,0.77
2018-10-02T00:47:27.446Z,1.08
2018-10-02T00:48:28.673Z,1.36
2018-10-02T00:49:28.924Z,1.53
2018-10-02T00:50:28.493Z,0.88
2018-10-02T00:51:29.564Z,0.54
2018-10-02T00:52:29.296Z,0.55
2018-10-02T00:53:28.841Z,1.25
2018-10-02T00:54:29.707Z,0.90
2018-10-02T00:55:30.075Z,0.53
2018-10-02T00:56:29.592Z,0.62
2018-10-02T00:57:30.482Z,0.28
2018-10-02T00:58:30.620Z,0.28
2018-10-02T00:59:30.048Z,1.06
2018-10-02T01:00:31.383Z,0.72
2018-10-02T01:01:31.912Z,1.61
2018-10-02T01:02:30.942Z,1.50
2018-10-02T01:03:32.250Z,1.05
2018-10-02T01:05:31.865Z,0.80
2018-10-02T01:06:32.776Z,0.92
2018-10-02T01:07:33.271Z,0.67
2018-10-02T01:08:32.297Z,1.28
2018-10-02T01:09:33.730Z,0.52
2018-10-02T01:11:33.575Z,2.36
2018-10-02T01:12:34.489Z,1.42
2018-10-02T01:13:35.096Z,0.87
2018-10-02T01:14:34.329Z,1.00
2018-10-02T01:15:35.350Z,1.20
2018-10-02T01:16:35.437Z,1.62
2018-10-02T01:17:34.995Z,2.00
2018-10-02T01:18:35.858Z,0.90
2018-10-02T01:19:36.376Z,1.29
2018-10-02T01:20:35.663Z,0.99
2018-10-02T01:21:36.651Z,1.24
2018-10-02T01:22:36.667Z,1.09
2018-10-02T01:23:35.930Z,1.62
2018-10-02T01:24:36.853Z,1.10
2018-10-02T01:25:37.203Z,2.15
2018-10-02T01:26:36.972Z,2.30
2018-10-02T01:27:38.254Z,1.82
2018-10-02T01:28:38.135Z,1.81
2018-10-02T01:29:37.721Z,0.95
2018-10-02T01:30:38.752Z,1.58
2018-10-02T01:31:38.600Z,1.94
2018-10-02T01:32:38.218Z,1.64
2018-10-02T01:33:39.126Z,1.17
2018-10-02T01:34:39.605Z,1.29
2018-10-02T01:35:39.449Z,0.83
2018-10-02T01:36:40.363Z,0.86
2018-10-02T01:37:40.759Z,1.26
2018-10-02T01:38:40.072Z,0.98
2018-10-02T01:39:41.453Z,1.67
2018-10-02T01:40:41.838Z,1.31
2018-10-02T01:41:41.492Z,2.23
2018-10-02T01:42:42.308Z,1.29
2018-10-02T01:43:42.590Z,1.42
2018-10-02T01:44:42.273Z,1.50
2018-10-02T01:45:43.223Z,1.38
2018-10-02T01:46:43.491Z,1.75
2018-10-02T01:47:42.897Z,1.66
2018-10-02T01:48:44.197Z,1.92
2018-10-02T01:49:44.783Z,1.31
2018-10-02T01:50:43.567Z,1.44
2018-10-02T01:52:45.132Z,0.76
2018-10-02T01:53:44.488Z,1.59
2018-10-02T01:54:45.242Z,1.58
2018-10-02T01:55:45.796Z,1.08
2018-10-02T01:56:44.699Z,1.56
2018-10-02T01:57:45.915Z,1.53
2018-10-02T01:58:46.281Z,1.69
2018-10-02T01:59:45.860Z,1.26
2018-10-02T02:00:46.641Z,1.52
2018-10-02T02:01:46.929Z,1.83
2018-10-02T02:02:46.491Z,1.36
2018-10-02T02:03:47.655Z,1.33
2018-10-02T02:04:48.163Z,1.38
2018-10-02T02:05:47.052Z,0.88
2018-10-02T02:06:48.232Z,1.26
2018-10-02T02:07:48.940Z,0.60
2018-10-02T02:08:47.872Z,0.68
2018-10-02T02:09:49.038Z,0.59
2018-10-02T02:10:49.472Z,0.89
2018-10-02T02:11:49.119Z,0.86
2018-10-02T02:12:49.990Z,0.48
2018-10-02T02:13:50.251Z,1.53
2018-10-02T02:14:49.919Z,1.04
2018-10-02T02:15:50.647Z,0.18
2018-10-02T02:16:50.940Z,0.08
2018-10-02T02:17:50.710Z,1.41
2018-10-02T02:18:51.437Z,0.66
2018-10-02T02:19:51.673Z,0.46
2018-10-02T02:20:51.336Z,0.45
2018-10-02T02:21:52.135Z,0.08
2018-10-02T02:22:52.711Z,0.06
2018-10-02T02:23:51.862Z,0.01
2018-10-02T02:24:52.594Z,0.06
2018-10-02T02:25:53.002Z,0.24
2018-10-02T02:26:52.682Z,0.56
2018-10-02T02:27:53.607Z,0.46
2018-10-02T02:28:53.957Z,0.08
2018-10-02T02:29:53.590Z,0.93
2018-10-02T02:30:54.362Z,0.51
2018-10-02T02:31:54.987Z,0.48
2018-10-02T02:32:54.150Z,0.13
2018-10-02T02:33:54.878Z,0.06
2018-10-02T02:34:55.119Z,0.01
2018-10-02T02:35:54.586Z,0.00
2018-10-02T02:36:55.885Z,0.00
2018-10-02T02:37:55.949Z,0.00
2018-10-02T02:38:55.464Z,0.34
2018-10-02T02:39:56.139Z,0.08
2018-10-02T02:40:56.335Z,0.08
2018-10-02T02:41:55.719Z,0.01
2018-10-02T02:42:57.023Z,0.00
2018-10-02T02:43:57.037Z,0.00
2018-10-02T02:44:56.396Z,0.00
2018-10-02T02:45:57.504Z,0.00
2018-10-02T02:46:57.537Z,0.01
2018-10-02T02:47:57.071Z,0.01
2018-10-02T02:48:58.282Z,0.00
2018-10-02T02:49:58.609Z,0.20
2018-10-02T02:50:58.187Z,0.37
2018-10-02T02:51:59.095Z,0.00
2018-10-02T02:52:59.159Z,0.00
2018-10-02T02:53:58.615Z,0.00
2018-10-02T02:54:59.937Z,0.08
2018-10-02T02:56:00.242Z,0.74
2018-10-02T02:56:59.580Z,0.24
2018-10-02T02:58:00.941Z,0.04
2018-10-02T02:59:01.129Z,0.00
2018-10-02T03:00:00.441Z,0.00
2018-10-02T03:01:02.101Z,0.28
2018-10-02T03:02:01.738Z,0.01
2018-10-02T03:03:01.291Z,0.00
2018-10-02T03:04:02.106Z,0.00
2018-10-02T03:05:02.286Z,0.51
2018-10-02T03:06:02.025Z,0.18
2018-10-02T03:08:02.772Z,0.54
2018-10-02T03:09:02.456Z,0.24
2018-10-02T03:10:03.357Z,0.03
2018-10-02T03:11:03.636Z,0.48
2018-10-02T03:12:03.914Z,0.07
2018-10-02T03:13:04.434Z,0.00
2018-10-02T03:14:04.359Z,0.06
2018-10-02T03:15:04.501Z,0.49
2018-10-02T03:16:04.987Z,0.52
2018-10-02T03:17:05.061Z,0.39
2018-10-02T03:18:05.038Z,0.18
2018-10-02T03:19:05.623Z,0.41
2018-10-02T03:21:05.508Z,0.13
2018-10-02T03:22:06.152Z,0.15
2018-10-02T03:23:06.277Z,0.00
2018-10-02T03:24:06.686Z,0.08
2018-10-02T03:25:07.243Z,0.04
2018-10-02T03:26:07.066Z,0.10
2018-10-02T03:27:07.454Z,0.15
2018-10-02T03:28:08.010Z,0.81
2018-10-02T03:29:07.985Z,0.55
2018-10-02T03:30:08.205Z,0.81
2018-10-02T03:31:08.788Z,0.45
2018-10-02T03:32:08.810Z,0.14
2018-10-02T03:33:08.999Z,0.43
2018-10-02T03:34:09.461Z,0.30
2018-10-02T03:35:09.861Z,0.01
2018-10-02T03:36:09.939Z,0.07
2018-10-02T03:37:10.212Z,0.56
2018-10-02T03:38:10.648Z,0.72
2018-10-02T03:39:10.716Z,0.79
2018-10-02T03:40:11.138Z,0.89
2018-10-02T03:41:11.297Z,0.93
2018-10-02T03:42:11.516Z,0.82
2018-10-02T03:43:11.828Z,0.37
2018-10-02T03:44:12.102Z,0.49
2018-10-02T03:45:13.403Z,0.65
2018-10-02T03:46:12.750Z,0.65
2018-10-02T03:47:12.930Z,0.73
2018-10-02T03:48:13.601Z,0.82
2018-10-02T03:49:13.420Z,0.37
2018-10-02T03:50:13.782Z,0.13
2018-10-02T03:51:13.857Z,0.25
2018-10-02T03:52:14.383Z,0.27
2018-10-02T03:53:14.220Z,0.06
2018-10-02T03:54:14.390Z,0.14
2018-10-02T03:55:14.833Z,0.32
2018-10-02T03:56:15.268Z,0.27
2018-10-02T03:57:15.614Z,0.11
2018-10-02T03:58:15.826Z,0.80
2018-10-02T03:59:16.224Z,0.79
2018-10-02T04:00:16.489Z,0.56
2018-10-02T04:01:16.699Z,0.42
2018-10-02T04:02:16.987Z,0.31
2018-10-02T04:03:17.133Z,0.46
2018-10-02T04:04:17.481Z,0.45
2018-10-02T04:05:17.160Z,1.21
2018-10-02T04:06:17.741Z,0.56
2018-10-02T04:07:18.339Z,0.72
2018-10-02T04:08:18.211Z,0.87
2018-10-02T04:09:18.595Z,0.64
2018-10-02T04:10:18.958Z,0.65
2018-10-02T04:11:18.708Z,0.32
2018-10-02T04:12:19.598Z,0.35
2018-10-02T04:13:19.970Z,0.17
2018-10-02T04:14:19.680Z,0.03
2018-10-02T04:15:20.600Z,0.00
2018-10-02T04:16:20.958Z,0.14
2018-10-02T04:17:20.775Z,0.46
2018-10-02T04:18:21.793Z,0.93
2018-10-02T04:19:21.747Z,0.71
2018-10-02T04:20:21.579Z,0.83
2018-10-02T04:21:22.574Z,0.21
2018-10-02T04:22:22.505Z,0.17
2018-10-02T04:23:22.247Z,0.52
2018-10-02T04:24:23.409Z,0.70
2018-10-02T04:25:23.426Z,0.32
2018-10-02T04:26:22.875Z,1.08
2018-10-02T04:27:23.871Z,0.18
2018-10-02T04:28:24.383Z,0.00
2018-10-02T04:29:23.784Z,0.45
2018-10-02T04:30:25.189Z,0.31
2018-10-02T04:31:25.219Z,0.80
2018-10-02T04:32:24.623Z,0.83
2018-10-02T04:33:26.074Z,0.42
2018-10-02T04:34:26.489Z,0.21
2018-10-02T04:35:25.834Z,0.62
2018-10-02T04:36:27.234Z,0.97
2018-10-02T04:37:27.231Z,0.23
2018-10-02T04:38:26.690Z,0.55
2018-10-02T04:39:27.972Z,0.32
2018-10-02T04:40:28.165Z,0.28
2018-10-02T04:41:27.831Z,0.53
2018-10-02T04:42:28.659Z,0.83
2018-10-02T04:43:29.429Z,0.62
2018-10-02T04:44:28.551Z,1.01
2018-10-02T04:45:29.443Z,0.62
2018-10-02T04:46:29.691Z,0.32
2018-10-02T04:47:29.197Z,0.79
2018-10-02T04:48:30.112Z,0.27
2018-10-02T04:49:30.338Z,0.57
2018-10-02T04:50:29.715Z,0.28
2018-10-02T04:51:31.024Z,0.15
2018-10-02T04:52:31.458Z,0.24
2018-10-02T04:53:30.903Z,0.13
2018-10-02T04:54:31.880Z,0.00
2018-10-02T04:55:32.218Z,0.03
2018-10-02T04:56:31.605Z,0.59
2018-10-02T04:57:32.937Z,0.35
2018-10-02T04:58:33.375Z,0.38
2018-10-02T04:59:32.751Z,0.60
2018-10-02T05:00:34.406Z,0.81
2018-10-02T05:01:34.349Z,0.31
2018-10-02T05:02:34.053Z,0.52
2018-10-02T05:03:35.099Z,0.20
2018-10-02T05:04:35.054Z,0.59
2018-10-02T05:05:34.713Z,0.90
2018-10-02T05:06:36.005Z,0.27
2018-10-02T05:07:36.183Z,0.03
2018-10-02T05:08:36.035Z,0.04
2018-10-02T05:09:37.037Z,0.20
2018-10-02T05:10:37.061Z,0.65
2018-10-02T05:11:36.292Z,0.03
2018-10-02T05:12:37.127Z,0.32
2018-10-02T05:13:37.766Z,0.72
2018-10-02T05:14:36.607Z,0.41
2018-10-02T05:15:38.033Z,0.17
2018-10-02T05:16:38.547Z,0.42
2018-10-02T05:17:37.625Z,0.64
2018-10-02T05:18:38.647Z,0.25
2018-10-02T05:19:38.459Z,1.26
2018-10-02T05:20:38.099Z,0.77
2018-10-02T05:21:38.960Z,0.56
2018-10-02T05:22:39.447Z,0.50
2018-10-02T05:23:39.077Z,0.38
2018-10-02T05:24:40.113Z,0.97
2018-10-02T05:25:40.420Z,0.72
2018-10-02T05:26:39.955Z,1.33
2018-10-02T05:27:41.014Z,1.34
2018-10-02T05:28:40.720Z,0.45
2018-10-02T05:29:40.262Z,0.20
2018-10-02T05:30:41.293Z,0.24
2018-10-02T05:31:41.192Z,0.41
2018-10-02T05:32:40.486Z,0.41
2018-10-02T05:33:42.046Z,0.14
2018-10-02T05:34:42.229Z,0.39
2018-10-02T05:35:41.725Z,0.38
2018-10-02T05:36:43.107Z,0.15
2018-10-02T05:37:43.367Z,0.25
2018-10-02T05:38:42.763Z,0.29
2018-10-02T05:39:44.166Z,0.55
2018-10-02T05:40:44.558Z,0.43
2018-10-02T05:41:44.012Z,0.60
2018-10-02T05:42:45.303Z,0.50
2018-10-02T05:43:45.558Z,0.53
2018-10-02T05:44:45.005Z,0.49
2018-10-02T05:45:46.036Z,0.91
2018-10-02T05:46:46.405Z,0.69
2018-10-02T05:47:45.731Z,0.70
2018-10-02T05:48:46.814Z,0.59
2018-10-02T05:49:47.242Z,0.32
2018-10-02T05:50:46.812Z,0.66
2018-10-02T05:51:48.034Z,0.35
2018-10-02T05:52:48.295Z,1.05
2018-10-02T05:53:47.886Z,0.45
2018-10-02T05:54:48.661Z,0.70
2018-10-02T05:55:48.943Z,0.32
2018-10-02T05:56:48.537Z,0.48
2018-10-02T05:57:49.259Z,0.68
2018-10-02T05:58:49.702Z,0.66
2018-10-02T05:59:49.478Z,0.55
2018-10-02T06:00:50.157Z,0.72
2018-10-02T06:01:50.404Z,0.84
2018-10-02T06:02:49.904Z,0.69
2018-10-02T06:03:50.638Z,0.35
2018-10-02T06:04:50.973Z,0.79
2018-10-02T06:05:50.741Z,0.56
2018-10-02T06:06:51.634Z,0.79
2018-10-02T06:07:52.028Z,0.90
2018-10-02T06:08:51.339Z,1.76
2018-10-02T06:09:51.961Z,0.93
2018-10-02T06:10:52.266Z,0.87
2018-10-02T06:11:52.009Z,1.11
2018-10-02T06:12:52.819Z,1.17
2018-10-02T06:13:53.212Z,1.43
2018-10-02T06:14:52.843Z,1.19
2018-10-02T06:15:53.731Z,0.73
2018-10-02T06:16:53.827Z,1.30
2018-10-02T06:17:53.434Z,1.38
2018-10-02T06:18:54.222Z,1.13
2018-10-02T06:19:54.607Z,0.60
2018-10-02T06:20:54.340Z,1.05
2018-10-02T06:21:55.028Z,0.91
2018-10-02T06:22:55.113Z,1.34
2018-10-02T06:23:54.498Z,0.77
2018-10-02T06:24:55.815Z,1.19
2018-10-02T06:25:56.048Z,1.03
2018-10-02T06:26:55.415Z,0.79
2018-10-02T06:27:56.726Z,0.97
2018-10-02T06:28:56.978Z,0.67
2018-10-02T06:29:56.528Z,0.66
2018-10-02T06:30:57.162Z,0.30
2018-10-02T06:31:57.240Z,0.34
2018-10-02T06:32:56.721Z,0.42
2018-10-02T06:33:57.930Z,0.52
2018-10-02T06:34:58.195Z,0.91
2018-10-02T06:35:57.588Z,0.14
2018-10-02T06:36:59.678Z,0.38
2018-10-02T06:37:58.884Z,1.01
2018-10-02T06:38:58.340Z,0.89
2018-10-02T06:39:59.595Z,0.93
2018-10-02T06:40:59.704Z,1.45
2018-10-02T06:41:59.090Z,0.61
2018-10-02T06:43:00.139Z,1.13
2018-10-02T06:44:00.066Z,1.32
2018-10-02T06:44:59.902Z,0.59
2018-10-02T06:46:01.417Z,0.38
2018-10-02T06:47:00.790Z,0.92
2018-10-02T06:48:00.832Z,0.69
2018-10-02T06:49:01.611Z,0.64
2018-10-02T06:50:01.794Z,0.66
2018-10-02T06:51:01.272Z,0.70
2018-10-02T06:52:02.768Z,0.50
2018-10-02T06:53:02.670Z,0.55
2018-10-02T06:54:02.843Z,1.33
2018-10-02T06:55:03.717Z,1.02
2018-10-02T06:56:03.958Z,0.74
2018-10-02T06:57:04.459Z,0.18
2018-10-02T06:58:04.922Z,0.76
2018-10-02T06:59:04.740Z,0.66
2018-10-02T07:00:04.620Z,0.41
2018-10-02T07:01:05.512Z,0.50
2018-10-02T07:02:05.367Z,0.31
2018-10-02T07:03:05.647Z,0.07
2018-10-02T07:04:05.948Z,0.10
2018-10-02T07:05:06.179Z,0.42
2018-10-02T07:06:05.809Z,0.34
2018-10-02T07:07:06.211Z,0.08
2018-10-02T07:08:06.470Z,0.69
2018-10-02T07:09:06.972Z,0.73
2018-10-02T07:10:07.020Z,1.58
2018-10-02T07:11:06.896Z,1.44
2018-10-02T07:12:07.158Z,1.43
2018-10-02T07:13:07.584Z,0.39
2018-10-02T07:14:07.848Z,0.13
2018-10-02T07:15:08.328Z,0.42
2018-10-02T07:16:08.884Z,0.70
2018-10-02T07:17:08.847Z,0.82
2018-10-02T07:18:09.247Z,0.52
2018-10-02T07:19:09.501Z,1.08
2018-10-02T07:20:09.871Z,0.83
2018-10-02T07:21:10.034Z,0.93
2018-10-02T07:22:10.349Z,0.48
2018-10-02T07:23:10.750Z,0.28
2018-10-02T07:24:10.872Z,0.43
2018-10-02T07:25:11.330Z,0.08
2018-10-02T07:26:11.812Z,1.81
2018-10-02T07:27:12.622Z,0.80
2018-10-02T07:28:12.030Z,0.73
2018-10-02T07:29:12.273Z,0.66
2018-10-02T07:30:12.652Z,0.55
2018-10-02T07:31:12.830Z,0.73
2018-10-02T07:32:13.144Z,0.48
2018-10-02T07:33:13.151Z,0.72
2018-10-02T07:34:13.340Z,0.49
2018-10-02T07:35:13.989Z,0.82
2018-10-02T07:36:13.474Z,1.48
2018-10-02T07:38:14.203Z,0.55
2018-10-02T07:39:14.375Z,0.80
2018-10-02T07:40:15.213Z,0.84
2018-10-02T07:41:14.990Z,1.01
2018-10-02T07:42:15.015Z,1.18
2018-10-02T07:43:15.719Z,0.74
2018-10-02T07:44:16.067Z,1.07
2018-10-02T07:45:16.206Z,0.46
2018-10-02T07:46:16.466Z,0.89
2018-10-02T07:47:16.095Z,1.36
2018-10-02T07:48:16.733Z,0.93
2018-10-02T07:49:17.104Z,1.25
2018-10-02T07:50:17.606Z,0.60
2018-10-02T07:51:17.613Z,1.18
2018-10-02T07:52:17.843Z,1.34
2018-10-02T07:53:18.435Z,0.90
2018-10-02T07:54:18.292Z,1.00
2018-10-02T07:55:18.804Z,0.55
2018-10-02T07:56:18.680Z,0.57
2018-10-02T07:57:19.814Z,0.55
2018-10-02T07:58:19.731Z,0.89
2018-10-02T07:59:19.574Z,0.39
2018-10-02T08:00:20.618Z,1.11
2018-10-02T08:01:20.591Z,1.52
2018-10-02T08:03:21.065Z,1.48
2018-10-02T08:04:21.373Z,0.66
2018-10-02T08:05:21.138Z,0.82
2018-10-02T08:06:21.930Z,0.63
2018-10-02T08:07:22.373Z,0.36
2018-10-02T08:08:22.133Z,0.95
2018-10-02T08:09:23.054Z,0.82
2018-10-02T08:10:23.532Z,1.61
2018-10-02T08:11:22.928Z,1.15
2018-10-02T08:12:24.499Z,0.63
2018-10-02T08:13:24.684Z,0.98
2018-10-02T08:14:24.167Z,1.56
2018-10-02T08:15:25.007Z,1.74
2018-10-02T08:16:25.405Z,1.42
2018-10-02T08:17:25.771Z,1.31
2018-10-02T08:18:26.247Z,1.23
2018-10-02T08:19:26.511Z,1.68
2018-10-02T08:20:25.967Z,0.77
2018-10-02T08:21:27.207Z,0.90
2018-10-02T08:22:27.364Z,0.83
2018-10-02T08:23:26.714Z,0.70
2018-10-02T08:24:27.966Z,0.79
2018-10-02T08:25:28.138Z,0.83
2018-10-02T08:26:27.501Z,0.62
2018-10-02T08:27:29.168Z,0.63
2018-10-02T08:28:28.901Z,1.21
2018-10-02T08:29:28.590Z,1.03
2018-10-02T08:30:30.055Z,0.39
2018-10-02T08:31:29.284Z,0.62
2018-10-02T08:32:28.710Z,0.48
2018-10-02T08:33:30.097Z,0.67
2018-10-02T08:34:30.356Z,0.62
2018-10-02T08:35:29.676Z,0.83
2018-10-02T08:36:30.914Z,0.41
2018-10-02T08:37:31.265Z,0.60
2018-10-02T08:38:30.623Z,0.59
2018-10-02T08:39:31.848Z,0.83
2018-10-02T08:40:32.143Z,0.28
2018-10-02T08:41:31.623Z,0.69
2018-10-02T08:42:32.870Z,0.91
2018-10-02T08:43:33.325Z,0.88
2018-10-02T08:44:32.738Z,0.73
2018-10-02T08:45:34.025Z,1.01
2018-10-02T08:46:34.286Z,0.68
2018-10-02T08:47:33.357Z,0.93
2018-10-02T08:48:34.723Z,1.41
2018-10-02T08:50:34.518Z,0.41
2018-10-02T08:51:35.654Z,0.77
2018-10-02T08:52:35.484Z,0.68
2018-10-02T08:53:35.251Z,0.43
2018-10-02T08:54:36.042Z,0.37
2018-10-02T08:55:36.547Z,0.45
2018-10-02T08:56:35.720Z,1.31
2018-10-02T08:57:36.664Z,1.36
2018-10-02T08:58:37.119Z,1.32
2018-10-02T08:59:36.437Z,1.60
2018-10-02T09:00:37.908Z,1.69
2018-10-02T09:01:38.305Z,0.88
2018-10-02T09:02:37.876Z,1.21
2018-10-02T09:03:38.894Z,0.92
2018-10-02T09:04:38.900Z,0.93
2018-10-02T09:05:37.963Z,1.91
2018-10-02T09:06:39.037Z,1.01
2018-10-02T09:07:39.654Z,1.70
2018-10-02T09:08:38.834Z,0.97
2018-10-02T09:09:39.827Z,0.93
2018-10-02T09:10:40.202Z,1.01
2018-10-02T09:11:39.285Z,1.60
2018-10-02T09:12:40.362Z,1.13
2018-10-02T09:13:40.705Z,1.26
2018-10-02T09:14:40.000Z,0.88
2018-10-02T09:15:41.466Z,0.86
2018-10-02T09:16:41.766Z,1.15
2018-10-02T09:17:40.989Z,1.15
2018-10-02T09:18:42.324Z,1.02
2018-10-02T09:19:42.427Z,0.72
2018-10-02T09:20:41.726Z,0.91
2018-10-02T09:21:43.206Z,0.91
2018-10-02T09:22:43.237Z,0.65
2018-10-02T09:23:42.573Z,0.55
2018-10-02T09:24:43.860Z,0.90
2018-10-02T09:25:44.382Z,0.53
2018-10-02T09:26:43.318Z,1.21
2018-10-02T09:27:44.725Z,1.46
2018-10-02T09:28:44.943Z,0.60
2018-10-02T09:29:44.395Z,0.97
2018-10-02T09:30:45.308Z,1.14
2018-10-02T09:31:45.530Z,0.60
2018-10-02T09:32:45.042Z,1.08
2018-10-02T09:33:46.068Z,1.23
2018-10-02T09:34:46.451Z,0.57
2018-10-02T09:35:45.876Z,0.64
2018-10-02T09:36:47.280Z,1.08
2018-10-02T09:37:47.727Z,0.56
2018-10-02T09:38:47.377Z,1.53
2018-10-02T09:39:48.293Z,1.40
2018-10-02T09:40:48.800Z,1.96
2018-10-02T09:41:47.712Z,0.90
2018-10-02T09:42:49.023Z,0.52
2018-10-02T09:43:49.624Z,0.90
2018-10-02T09:44:48.918Z,1.72
2018-10-02T09:45:49.727Z,0.30
2018-10-02T09:46:49.863Z,1.00
2018-10-02T09:47:49.497Z,0.66
2018-10-02T09:48:50.339Z,1.04
2018-10-02T09:49:50.947Z,0.14
2018-10-02T09:50:50.089Z,0.89
2018-10-02T09:51:50.903Z,1.81
2018-10-02T09:52:51.233Z,1.42
2018-10-02T09:53:50.978Z,0.58
2018-10-02T09:54:51.786Z,0.55
2018-10-02T09:55:52.179Z,0.63
2018-10-02T09:56:51.809Z,2.34
2018-10-02T09:57:52.505Z,0.45
2018-10-02T09:58:52.707Z,0.86
2018-10-02T09:59:52.346Z,0.93
2018-10-02T10:00:53.157Z,0.59
2018-10-02T10:01:53.356Z,1.36
2018-10-02T10:02:53.138Z,0.53
2018-10-02T10:03:53.958Z,1.68
2018-10-02T10:04:54.516Z,1.96
2018-10-02T10:05:53.629Z,2.40
2018-10-02T10:06:54.429Z,2.85
2018-10-02T10:07:54.720Z,1.91
2018-10-02T10:08:54.255Z,1.53
2018-10-02T10:09:54.959Z,1.52
2018-10-02T10:10:55.181Z,1.73
2018-10-02T10:11:54.560Z,0.86
2018-10-02T10:12:55.745Z,0.64
2018-10-02T10:13:56.239Z,0.44
2018-10-02T10:14:55.641Z,1.51
2018-10-02T10:15:56.779Z,1.09
2018-10-02T10:16:56.815Z,1.46
2018-10-02T10:17:56.696Z,2.66
2018-10-02T10:18:57.889Z,1.64
2018-10-02T10:19:58.076Z,0.63
2018-10-02T10:20:57.533Z,1.11
2018-10-02T10:21:58.295Z,1.58
2018-10-02T10:22:58.363Z,1.45
2018-10-02T10:23:57.624Z,2.79
2018-10-02T10:24:58.915Z,2.71
2018-10-02T10:25:58.918Z,1.79
2018-10-02T10:26:58.728Z,0.48
2018-10-02T10:28:00.142Z,0.80
2018-10-02T10:29:00.441Z,2.10
2018-10-02T10:29:59.708Z,4.43
2018-10-02T10:31:01.431Z,2.43
2018-10-02T10:32:00.994Z,2.97
2018-10-02T10:33:00.527Z,2.12
2018-10-02T10:34:01.249Z,1.35
2018-10-02T10:35:01.427Z,3.59
2018-10-02T10:36:00.898Z,3.09
2018-10-02T10:37:02.073Z,4.49
2018-10-02T10:38:02.474Z,3.02
2018-10-02T10:39:01.767Z,2.16
2018-10-02T10:40:03.150Z,3.70
2018-10-02T10:41:03.395Z,2.51
2018-10-02T10:42:03.353Z,2.18
2018-10-02T10:43:03.740Z,1.83
2018-10-02T10:44:03.956Z,1.15
2018-10-02T10:45:03.496Z,1.13
2018-10-02T10:46:04.472Z,3.07
2018-10-02T10:47:04.803Z,1.12
2018-10-02T10:48:04.954Z,1.74
2018-10-02T10:49:05.438Z,1.43
2018-10-02T10:50:05.961Z,1.26
2018-10-02T10:51:05.680Z,1.81
2018-10-02T10:52:06.170Z,1.98
2018-10-02T10:53:06.592Z,1.34
2018-10-02T10:54:06.792Z,0.76
2018-10-02T10:55:07.135Z,0.91
2018-10-02T10:56:07.307Z,1.97
2018-10-02T10:57:07.535Z,3.19
2018-10-02T10:58:07.869Z,2.52
2018-10-02T10:59:08.470Z,2.49
2018-10-02T11:00:08.506Z,2.88
2018-10-02T11:01:09.072Z,2.11
2018-10-02T11:02:08.910Z,2.87
2018-10-02T11:03:09.203Z,2.40
2018-10-02T11:04:09.668Z,4.66
2018-10-02T11:05:10.045Z,2.37
2018-10-02T11:06:10.172Z,3.96
2018-10-02T11:07:10.690Z,2.63
2018-10-02T11:08:10.664Z,1.98
2018-10-02T11:09:10.963Z,2.76
2018-10-02T11:10:11.262Z,2.79
2018-10-02T11:11:11.741Z,2.47
2018-10-02T11:12:12.085Z,4.33
2018-10-02T11:13:12.373Z,3.85
2018-10-02T11:14:12.752Z,3.45
2018-10-02T11:15:12.964Z,3.48
2018-10-02T11:16:13.369Z,1.95
2018-10-02T11:17:13.715Z,2.11
2018-10-02T11:18:13.816Z,1.82
2018-10-02T11:19:14.047Z,3.03
2018-10-02T11:20:14.496Z,3.31
2018-10-02T11:21:15.322Z,5.53
2018-10-02T11:22:14.499Z,2.14
2018-10-02T11:23:14.707Z,2.83
2018-10-02T11:24:14.975Z,3.25
2018-10-02T11:25:15.224Z,5.54
2018-10-02T11:26:15.161Z,5.86
2018-10-02T11:27:15.718Z,2.45
2018-10-02T11:28:16.121Z,2.55
2018-10-02T11:29:15.909Z,1.04
2018-10-02T11:30:16.542Z,2.63
2018-10-02T11:31:16.773Z,2.89
2018-10-02T11:32:17.285Z,5.19
2018-10-02T11:33:16.938Z,4.14
2018-10-02T11:34:17.128Z,1.66
2018-10-02T11:35:17.484Z,1.31
2018-10-02T11:36:17.754Z,1.89
2018-10-02T11:37:18.184Z,2.69
2018-10-02T11:38:17.997Z,3.10
2018-10-02T11:39:18.963Z,3.41
2018-10-02T11:40:19.356Z,4.30
2018-10-02T11:41:19.882Z,4.04
2018-10-02T11:42:19.845Z,2.00
2018-10-02T11:43:20.287Z,5.07
2018-10-02T11:44:20.683Z,3.60
2018-10-02T11:45:20.730Z,3.14
2018-10-02T11:46:21.139Z,3.19
2018-10-02T11:47:21.480Z,2.83
2018-10-02T11:48:21.930Z,2.44
2018-10-02T11:49:22.369Z,2.05
2018-10-02T11:50:22.245Z,3.06
2018-10-02T11:51:23.204Z,3.98
2018-10-02T11:52:23.579Z,2.58
2018-10-02T11:53:23.177Z,1.85
2018-10-02T11:54:24.147Z,2.47
2018-10-02T11:55:24.699Z,3.53
2018-10-02T11:56:24.162Z,3.00
2018-10-02T11:57:25.245Z,4.09
2018-10-02T11:58:25.210Z,2.11
2018-10-02T12:00:25.789Z,2.17
2018-10-02T12:01:25.639Z,2.70
2018-10-02T12:02:25.074Z,3.46
2018-10-02T12:03:26.394Z,3.97
2018-10-02T12:04:26.566Z,4.16
2018-10-02T12:05:25.907Z,3.83
2018-10-02T12:06:27.178Z,1.39
2018-10-02T12:07:27.525Z,4.41
2018-10-02T12:08:26.814Z,2.55
2018-10-02T12:09:28.043Z,1.93
2018-10-02T12:10:28.382Z,2.85
2018-10-02T12:11:27.887Z,2.89
2018-10-02T12:12:29.127Z,1.37
2018-10-02T12:13:29.453Z,2.16
2018-10-02T12:14:29.157Z,2.78
2018-10-02T12:15:30.158Z,3.75
2018-10-02T12:16:30.452Z,3.70
2018-10-02T12:17:29.712Z,5.87
2018-10-02T12:18:30.561Z,3.37
2018-10-02T12:19:30.955Z,7.79
2018-10-02T12:20:30.252Z,3.18
2018-10-02T12:21:31.561Z,4.87
2018-10-02T12:22:31.790Z,2.91
2018-10-02T12:23:31.230Z,4.46
2018-10-02T12:24:32.551Z,4.98
2018-10-02T12:25:32.733Z,3.42
2018-10-02T12:26:32.265Z,5.81
2018-10-02T12:27:33.245Z,4.54
2018-10-02T12:28:33.698Z,6.70
2018-10-02T12:29:33.215Z,4.91
2018-10-02T12:30:34.051Z,4.64
2018-10-02T12:31:34.606Z,3.15
2018-10-02T12:32:33.743Z,2.89
2018-10-02T12:33:34.850Z,1.52
2018-10-02T12:34:34.701Z,2.96
2018-10-02T12:35:34.462Z,2.23
2018-10-02T12:36:35.390Z,2.51
2018-10-02T12:37:35.768Z,2.52
2018-10-02T12:38:35.531Z,4.39
2018-10-02T12:39:36.351Z,3.29
2018-10-02T12:40:36.585Z,4.13
2018-10-02T12:41:36.167Z,3.36
2018-10-02T12:42:37.084Z,3.49
2018-10-02T12:43:37.679Z,3.86
2018-10-02T12:44:36.859Z,6.31
2018-10-02T12:45:37.754Z,4.78
2018-10-02T12:46:38.240Z,3.60
2018-10-02T12:47:37.502Z,2.16
2018-10-02T12:48:38.446Z,4.90
2018-10-02T12:49:39.048Z,8.10
2018-10-02T12:51:38.991Z,3.19
2018-10-02T12:52:39.595Z,1.81
2018-10-02T12:53:39.013Z,4.38
2018-10-02T12:54:40.459Z,6.45
2018-10-02T12:55:40.382Z,4.93
2018-10-02T12:56:39.922Z,3.11
2018-10-02T12:57:40.751Z,3.13
2018-10-02T12:58:41.129Z,4.47
2018-10-02T12:59:40.420Z,4.86
2018-10-02T13:00:41.783Z,3.98
2018-10-02T13:01:42.073Z,2.13
2018-10-02T13:02:41.454Z,1.03
2018-10-02T13:03:42.850Z,3.80
2018-10-02T13:04:43.200Z,4.39
2018-10-02T13:05:42.560Z,2.18
2018-10-02T13:06:44.435Z,3.11
2018-10-02T13:07:44.505Z,5.63
2018-10-02T13:08:43.601Z,4.35
2018-10-02T13:09:44.736Z,1.80
2018-10-02T13:10:44.757Z,5.20
2018-10-02T13:11:43.695Z,1.93
2018-10-02T13:12:44.878Z,1.48
2018-10-02T13:13:45.476Z,2.78
2018-10-02T13:14:44.282Z,3.23
2018-10-02T13:15:45.422Z,3.38
2018-10-02T13:16:45.972Z,2.44
2018-10-02T13:17:45.416Z,2.12
2018-10-02T13:18:46.116Z,0.99
2018-10-02T13:19:46.444Z,3.13
2018-10-02T13:20:45.730Z,3.22
2018-10-02T13:21:46.818Z,1.97
2018-10-02T13:22:47.093Z,2.16
2018-10-02T13:23:46.458Z,1.32
2018-10-02T13:24:47.642Z,1.01
2018-10-02T13:25:47.907Z,0.80
2018-10-02T13:26:47.522Z,1.07
2018-10-02T13:27:48.237Z,1.41
2018-10-02T13:28:48.759Z,1.84
2018-10-02T13:29:47.588Z,3.77
2018-10-02T13:30:48.812Z,3.96
2018-10-02T13:31:49.254Z,2.16